Time;durP1;ratioP1;P1;durP2;ratioP2;P2;SDS_P1;SDS_P2;PMS_P1;PMS_P2;Temp;Humidity;BMP_temperature;BMP_pressure;BME280_temperature;BME280_humidity;BME280_pressure;Samples;Min_cycle;Max_cycle;Signal;HPM_P1;HPM_P2
2022/09/12 00:01:37;;;;;;;0.30;0.30;;;24.90;56.70;;;;;;5103480;28;20020;-60
2022/09/12 00:04:02;;;;;;;0.20;0.20;;;24.90;56.70;;;;;;5103445;28;20017;-60
2022/09/12 00:06:31;;;;;;;0.20;0.20;;;24.90;56.70;;;;;;5103444;28;20079;-60
2022/09/12 00:08:59;;;;;;;0.20;0.20;;;24.90;56.70;;;;;;5103229;28;20343;-60
2022/09/12 00:11:25;;;;;;;0.17;0.17;;;24.90;56.70;;;;;;5103440;28;20030;-61
2022/09/12 00:13:55;;;;;;;0.20;0.20;;;24.90;56.70;;;;;;5103354;28;20046;-59
2022/09/12 00:16:23;;;;;;;1.55;0.20;;;24.90;56.80;;;;;;5103334;28;20020;-58
2022/09/12 00:18:52;;;;;;;0.20;0.20;;;24.90;56.80;;;;;;5103237;28;20075;-59
2022/09/12 00:21:18;;;;;;;0.20;0.20;;;24.90;56.80;;;;;;5103297;28;20129;-60
2022/09/12 00:23:45;;;;;;;0.28;0.22;;;24.90;56.80;;;;;;5103227;28;20016;-60
2022/09/12 00:26:11;;;;;;;0.20;0.20;;;24.90;56.80;;;;;;5103231;28;20185;-60
2022/09/12 00:28:39;;;;;;;0.20;0.20;;;24.90;56.80;;;;;;5103136;28;20017;-58
2022/09/12 00:31:10;;;;;;;0.60;0.30;;;24.90;56.80;;;;;;5103181;28;20016;-59
2022/09/12 00:33:36;;;;;;;0.38;0.22;;;24.90;56.90;;;;;;5103179;28;20023;-59
2022/09/12 00:36:08;;;;;;;0.30;0.30;;;24.80;56.80;;;;;;5103123;28;20250;-59
2022/09/12 00:38:37;;;;;;;0.20;0.20;;;24.80;56.80;;;;;;5085027;28;20058;-59
2022/09/12 00:41:04;;;;;;;0.20;0.20;;;24.80;56.80;;;;;;5103664;28;20377;-60
2022/09/12 00:43:38;;;;;;;0.20;0.20;;;24.90;56.80;;;;;;5106828;28;20023;-59
2022/09/12 00:46:12;;;;;;;0.20;0.10;;;24.80;56.80;;;;;;5107129;28;20020;-59
2022/09/12 00:48:45;;;;;;;0.30;0.30;;;24.80;56.80;;;;;;5106768;28;20084;-59
2022/09/12 00:51:11;;;;;;;0.20;0.20;;;24.80;56.80;;;;;;5106704;28;20319;-59
2022/09/12 00:53:40;;;;;;;0.40;0.40;;;24.80;56.80;;;;;;5106662;28;20369;-60
2022/09/12 00:56:06;;;;;;;0.20;0.20;;;24.80;56.80;;;;;;5106590;28;20024;-60
2022/09/12 00:58:41;;;;;;;0.30;0.30;;;24.80;56.80;;;;;;5106447;28;20019;-60
2022/09/12 01:01:07;;;;;;;0.20;0.13;;;24.80;56.80;;;;;;5106534;28;20039;-60
2022/09/12 01:03:33;;;;;;;0.20;0.20;;;24.80;56.80;;;;;;5106439;28;20020;-61
2022/09/12 01:06:30;;;;;;;0.20;0.20;;;24.80;56.80;;;;;;5106433;28;20016;-61
2022/09/12 01:08:58;;;;;;;0.20;0.20;;;24.80;56.80;;;;;;5067198;28;20111;-59
2022/09/12 01:11:24;;;;;;;0.20;0.20;;;24.80;56.80;;;;;;5106301;28;20092;-59
2022/09/12 01:13:50;;;;;;;0.10;0.10;;;24.80;56.80;;;;;;5106264;28;20028;-59
2022/09/12 01:16:16;;;;;;;0.20;0.20;;;24.80;56.80;;;;;;5106467;28;20026;-59
2022/09/12 01:19:05;;;;;;;0.38;0.20;;;24.80;56.80;;;;;;5106100;28;20020;-60
2022/09/12 01:22:06;;;;;;;0.20;0.20;;;24.80;56.80;;;;;;5106138;28;20207;-59
2022/09/12 01:24:51;;;;;;;0.20;0.20;;;24.80;56.90;;;;;;5082633;28;20032;-59
2022/09/12 01:27:40;;;;;;;0.20;0.20;;;24.80;56.90;;;;;;5105992;28;20016;-59
2022/09/12 01:30:33;;;;;;;0.55;0.20;;;24.80;56.90;;;;;;5106256;28;20027;-60
2022/09/12 01:33:28;;;;;;;0.20;0.20;;;24.70;56.80;;;;;;5105955;28;20020;-60
2022/09/12 01:36:14;;;;;;;0.30;0.30;;;24.70;56.80;;;;;;5105870;28;20222;-60
2022/09/12 01:38:46;;;;;;;0.30;0.30;;;24.70;56.90;;;;;;5105745;28;20011;-60
2022/09/12 01:41:29;;;;;;;0.30;0.30;;;24.70;56.80;;;;;;5105769;28;20024;-59
2022/09/12 01:44:11;;;;;;;0.17;0.17;;;24.70;56.90;;;;;;5105738;28;20293;-59
2022/09/12 01:47:09;;;;;;;0.10;0.10;;;24.70;56.90;;;;;;5105672;28;20020;-59
2022/09/12 01:49:53;;;;;;;0.28;0.28;;;24.70;56.90;;;;;;5086670;28;20335;-59
2022/09/12 01:52:25;;;;;;;0.30;0.30;;;24.70;56.80;;;;;;5105027;28;20281;-60
2022/09/12 01:55:03;;;;;;;0.20;0.20;;;24.70;56.80;;;;;;5105207;28;20024;-60
2022/09/12 01:57:38;;;;;;;0.10;0.10;;;24.70;56.90;;;;;;5105468;28;20026;-59
2022/09/12 02:00:09;;;;;;;0.20;0.20;;;24.70;56.90;;;;;;5105315;28;20080;-61
2022/09/12 02:02:52;;;;;;;0.30;0.30;;;24.70;56.90;;;;;;5105647;28;20181;-61
2022/09/12 02:05:20;;;;;;;1.85;0.25;;;24.70;56.90;;;;;;5105344;28;20242;-60
2022/09/12 02:07:55;;;;;;;0.35;0.25;;;24.70;56.90;;;;;;5105223;28;20058;-60
2022/09/12 02:10:25;;;;;;;0.20;0.20;;;24.70;56.90;;;;;;5105043;28;20115;-59
2022/09/12 02:12:58;;;;;;;0.40;0.40;;;24.70;56.90;;;;;;5105154;28;20031;-60
2022/09/12 02:15:35;;;;;;;0.10;0.10;;;24.70;56.90;;;;;;5105137;28;20327;-61
2022/09/12 02:18:04;;;;;;;0.30;0.30;;;24.70;56.90;;;;;;5105094;28;20328;-58
2022/09/12 02:20:35;;;;;;;0.60;0.40;;;24.70;56.90;;;;;;5105006;28;20079;-60
2022/09/12 02:23:05;;;;;;;0.20;0.20;;;24.70;56.90;;;;;;5104987;28;20084;-60
2022/09/12 02:25:32;;;;;;;0.30;0.30;;;24.70;56.90;;;;;;5104907;28;20019;-59
2022/09/12 02:28:11;;;;;;;0.30;0.30;;;24.70;56.90;;;;;;5105125;28;20020;-60
2022/09/12 02:30:44;;;;;;;0.30;0.30;;;24.70;56.90;;;;;;5104822;28;20016;-60
2022/09/12 02:33:16;;;;;;;0.47;0.30;;;24.60;56.90;;;;;;5104800;28;20327;-60
2022/09/12 02:36:13;;;;;;;0.52;0.35;;;24.70;56.90;;;;;;5105303;28;20196;-60
2022/09/12 02:38:46;;;;;;;0.20;0.20;;;24.70;56.90;;;;;;5104616;28;20124;-60
2022/09/12 02:41:16;;;;;;;0.20;0.20;;;24.70;56.90;;;;;;5104596;28;20016;-59
2022/09/12 02:43:42;;;;;;;0.30;0.20;;;24.70;57.00;;;;;;5104559;28;20231;-58
2022/09/12 02:46:14;;;;;;;0.20;0.20;;;24.70;57.00;;;;;;5104532;28;20017;-60
2022/09/12 02:48:42;;;;;;;0.38;0.38;;;24.70;57.00;;;;;;5104487;28;20211;-59
2022/09/12 02:51:09;;;;;;;0.17;0.17;;;24.60;56.90;;;;;;5105050;28;20125;-59
2022/09/12 02:53:36;;;;;;;0.22;0.22;;;24.60;56.90;;;;;;5104404;28;20315;-59
2022/09/12 02:56:06;;;;;;;0.30;0.30;;;24.60;56.90;;;;;;5104353;28;20024;-60
2022/09/12 02:58:32;;;;;;;0.30;0.30;;;24.60;56.90;;;;;;5104261;28;20234;-59
2022/09/12 03:01:07;;;;;;;0.20;0.20;;;24.60;56.90;;;;;;5086502;28;20259;-60
2022/09/12 03:03:41;;;;;;;0.13;0.13;;;24.70;57.00;;;;;;5104141;28;20016;-60
2022/09/12 03:06:32;;;;;;;0.30;0.30;;;24.60;56.90;;;;;;5104224;28;20215;-59
2022/09/12 03:09:14;;;;;;;0.30;0.30;;;24.60;56.90;;;;;;5103994;28;20325;-59
2022/09/12 03:12:01;;;;;;;0.15;0.15;;;24.60;56.90;;;;;;5104755;28;20081;-59
2022/09/12 03:14:53;;;;;;;0.20;0.20;;;24.60;56.90;;;;;;5104121;28;20020;-59
2022/09/12 03:17:40;;;;;;;1.30;0.88;;;24.60;56.90;;;;;;5104045;28;20249;-60
2022/09/12 03:20:31;;;;;;;0.28;0.28;;;24.60;56.90;;;;;;5103939;28;20084;-59
2022/09/12 03:23:53;;;;;;;0.65;0.30;;;24.60;56.90;;;;;;5103971;28;20036;-60
2022/09/12 03:26:37;;;;;;;0.50;0.50;;;24.60;56.90;;;;;;5029057;28;20083;-60
2022/09/12 03:29:05;;;;;;;0.20;0.20;;;24.60;56.90;;;;;;5103896;28;20346;-61
2022/09/12 03:31:32;;;;;;;0.20;0.20;;;24.60;56.90;;;;;;5103815;28;20023;-59
2022/09/12 03:33:59;;;;;;;0.30;0.30;;;24.60;56.90;;;;;;5103760;28;20020;-59
2022/09/12 03:36:27;;;;;;;1.13;0.50;;;24.60;56.90;;;;;;5103735;28;20015;-60
2022/09/12 03:38:53;;;;;;;0.20;0.20;;;24.60;57.50;;;;;;5103689;28;20028;-60
2022/09/12 03:41:20;;;;;;;0.30;0.30;;;24.60;56.90;;;;;;5103682;28;20016;-59
2022/09/12 03:43:46;;;;;;;0.20;0.20;;;24.50;56.80;;;;;;5103688;28;20020;-60
2022/09/12 03:46:12;;;;;;;0.20;0.20;;;24.50;56.80;;;;;;5103904;28;20012;-60
2022/09/12 03:48:39;;;;;;;0.30;0.30;;;24.50;56.90;;;;;;5103634;28;20020;-60
2022/09/12 03:51:07;;;;;;;0.20;0.20;;;24.50;56.90;;;;;;5103588;28;20016;-60
2022/09/12 03:53:33;;;;;;;0.30;0.30;;;24.50;56.80;;;;;;5103587;28;20031;-60
2022/09/12 03:56:04;;;;;;;0.20;0.20;;;24.50;56.90;;;;;;5103617;28;20048;-59
2022/09/12 03:58:30;;;;;;;0.73;0.73;;;24.50;56.90;;;;;;5103468;28;20016;-59
2022/09/12 04:00:56;;;;;;;0.28;0.25;;;24.50;56.80;;;;;;5103513;28;20051;-60
2022/09/12 04:03:22;;;;;;;0.20;0.20;;;24.50;56.90;;;;;;5103751;28;20012;-59
2022/09/12 04:05:48;;;;;;;0.20;0.20;;;24.50;56.90;;;;;;5103476;28;20016;-59
2022/09/12 04:08:13;;;;;;;0.13;0.13;;;24.50;56.80;;;;;;5103432;28;20020;-60
2022/09/12 04:10:40;;;;;;;0.25;0.25;;;24.50;56.90;;;;;;5103305;28;20103;-60
2022/09/12 04:13:06;;;;;;;0.22;0.22;;;24.50;56.90;;;;;;5103401;28;20024;-60
2022/09/12 04:15:31;;;;;;;0.20;0.20;;;24.50;56.80;;;;;;5103385;28;20022;-59
2022/09/12 04:17:57;;;;;;;0.22;0.20;;;24.50;56.90;;;;;;5107143;28;20043;-60
2022/09/12 04:20:23;;;;;;;0.30;0.28;;;24.50;56.90;;;;;;5107251;28;20022;-60
2022/09/12 04:22:49;;;;;;;0.30;0.30;;;24.50;56.90;;;;;;5107282;28;20020;-60
2022/09/12 04:25:16;;;;;;;0.20;0.20;;;24.50;56.90;;;;;;5107229;28;20079;-60
2022/09/12 04:27:41;;;;;;;0.20;0.20;;;24.50;56.90;;;;;;5107192;28;20016;-60
2022/09/12 04:30:08;;;;;;;0.20;0.20;;;24.50;56.90;;;;;;5107136;28;20083;-59
2022/09/12 04:32:34;;;;;;;0.22;0.22;;;24.50;56.90;;;;;;5107120;28;20020;-60
2022/09/12 04:34:59;;;;;;;0.20;0.20;;;24.50;56.90;;;;;;5107094;28;20047;-60
2022/09/12 04:37:26;;;;;;;0.20;0.20;;;24.40;56.90;;;;;;5107016;28;20030;-60
2022/09/12 04:39:56;;;;;;;0.77;0.40;;;24.50;56.90;;;;;;5107100;28;20020;-60
2022/09/12 04:42:22;;;;;;;0.20;0.20;;;24.50;56.90;;;;;;5107182;28;20016;-60
2022/09/12 04:44:48;;;;;;;0.30;0.30;;;24.50;56.90;;;;;;5107141;28;20027;-60
2022/09/12 04:47:14;;;;;;;0.30;0.30;;;24.50;56.90;;;;;;5106822;28;20016;-60
2022/09/12 04:49:39;;;;;;;0.30;0.30;;;24.40;56.80;;;;;;5106810;28;20044;-60
2022/09/12 04:52:06;;;;;;;0.30;0.30;;;24.50;56.90;;;;;;5106738;28;20241;-60
2022/09/12 04:54:33;;;;;;;0.55;0.30;;;24.50;56.90;;;;;;5106664;28;20063;-60
2022/09/12 04:56:59;;;;;;;0.40;0.40;;;24.40;56.80;;;;;;5106651;28;20350;-60
2022/09/12 04:59:25;;;;;;;0.20;0.20;;;24.50;56.80;;;;;;5106494;28;20035;-61
2022/09/12 05:01:51;;;;;;;0.28;0.28;;;24.40;56.80;;;;;;5106518;28;20319;-60
2022/09/12 05:04:17;;;;;;;0.30;0.30;;;24.50;56.80;;;;;;5106724;28;20061;-60
2022/09/12 05:06:43;;;;;;;0.25;0.20;;;24.40;56.80;;;;;;5106482;28;20328;-60
2022/09/12 05:09:13;;;;;;;0.32;0.32;;;24.40;56.80;;;;;;5106253;28;20056;-60
2022/09/12 05:11:41;;;;;;;0.43;0.40;;;24.40;56.80;;;;;;5106323;28;20019;-60
2022/09/12 05:14:08;;;;;;;0.40;0.40;;;24.40;56.80;;;;;;5106549;28;20024;-59
2022/09/12 05:16:34;;;;;;;0.30;0.30;;;24.40;56.90;;;;;;5106252;28;20023;-59
2022/09/12 05:19:00;;;;;;;0.30;0.30;;;24.40;56.80;;;;;;5106141;28;20024;-59
2022/09/12 05:21:26;;;;;;;0.28;0.22;;;24.40;56.80;;;;;;5106192;28;20016;-59
2022/09/12 05:23:54;;;;;;;0.65;0.40;;;24.40;56.80;;;;;;5106368;28;20020;-59
2022/09/12 05:26:21;;;;;;;1.88;0.65;;;24.40;56.80;;;;;;5106040;28;20051;-59
2022/09/12 05:28:48;;;;;;;0.30;0.30;;;24.40;56.90;;;;;;5105967;28;20404;-58
2022/09/12 05:31:22;;;;;;;0.20;0.20;;;24.40;56.90;;;;;;5106231;28;20019;-60
2022/09/12 05:33:50;;;;;;;0.40;0.40;;;24.40;56.90;;;;;;5106244;28;20041;-59
2022/09/12 05:36:21;;;;;;;0.37;0.33;;;24.40;57.00;;;;;;5105900;28;20024;-59
2022/09/12 05:38:47;;;;;;;0.25;0.25;;;24.40;57.00;;;;;;5105793;28;20042;-60
2022/09/12 05:41:21;;;;;;;0.40;0.40;;;24.40;56.90;;;;;;5105776;28;20185;-60
2022/09/12 05:43:54;;;;;;;0.30;0.30;;;24.40;56.90;;;;;;5106044;28;20125;-61
2022/09/12 05:46:22;;;;;;;0.35;0.35;;;24.40;56.90;;;;;;5105709;28;20204;-60
2022/09/12 05:48:49;;;;;;;0.38;0.38;;;24.40;56.90;;;;;;5105952;28;20307;-60
2022/09/12 05:51:20;;;;;;;0.32;0.32;;;24.40;56.90;;;;;;5105600;28;20032;-60
2022/09/12 05:53:50;;;;;;;1.35;0.40;;;24.40;56.90;;;;;;5105570;28;20045;-60
2022/09/12 05:56:22;;;;;;;0.35;0.35;;;24.40;56.90;;;;;;5105482;28;20026;-59
2022/09/12 05:58:58;;;;;;;0.32;0.32;;;24.40;57.00;;;;;;5105447;28;20022;-60
2022/09/12 06:01:26;;;;;;;1.45;0.30;;;24.40;56.90;;;;;;5105439;28;20016;-60
2022/09/12 06:03:54;;;;;;;0.30;0.30;;;24.40;56.90;;;;;;5105292;28;20020;-60
2022/09/12 06:06:22;;;;;;;0.30;0.30;;;24.40;56.90;;;;;;5105265;28;20032;-58
2022/09/12 06:08:52;;;;;;;0.30;0.30;;;24.40;56.90;;;;;;5105089;28;20072;-58
2022/09/12 06:11:21;;;;;;;0.40;0.30;;;24.40;56.80;;;;;;5105245;28;20020;-59
2022/09/12 06:13:48;;;;;;;0.30;0.30;;;24.40;56.90;;;;;;5105102;28;20031;-58
2022/09/12 06:16:24;;;;;;;2.83;2.28;;;24.40;56.90;;;;;;5105112;28;20312;-61
2022/09/12 06:19:13;;;;;;;1.00;0.95;;;24.40;56.00;;;;;;5104972;28;20312;-60
2022/09/12 06:21:38;;;;;;;0.85;0.85;;;24.30;56.70;;;;;;5105027;28;20019;-60
2022/09/12 06:24:06;;;;;;;0.38;0.38;;;24.30;56.90;;;;;;5104927;28;20016;-59
2022/09/12 06:26:32;;;;;;;0.50;0.50;;;24.30;56.80;;;;;;5104877;28;20177;-58
2022/09/12 06:28:59;;;;;;;0.68;0.60;;;24.40;56.90;;;;;;5104841;28;20023;-59
2022/09/12 06:31:29;;;;;;;1.38;0.50;;;24.30;56.80;;;;;;5104849;28;20024;-59
2022/09/12 06:33:58;;;;;;;0.55;0.55;;;24.40;56.80;;;;;;5104723;28;20207;-60
2022/09/12 06:36:28;;;;;;;0.70;0.70;;;24.40;56.80;;;;;;5104705;28;20026;-60
2022/09/12 06:38:59;;;;;;;0.70;0.60;;;24.40;56.80;;;;;;5104412;28;20023;-59
2022/09/12 06:41:27;;;;;;;0.50;0.50;;;24.40;56.80;;;;;;5104670;28;20026;-58
2022/09/12 06:43:53;;;;;;;0.40;0.40;;;24.40;56.80;;;;;;5104883;28;20020;-59
2022/09/12 06:46:20;;;;;;;0.73;0.50;;;24.40;56.80;;;;;;5104547;28;20371;-59
2022/09/12 06:48:46;;;;;;;0.40;0.40;;;24.40;56.80;;;;;;5104522;28;20122;-59
2022/09/12 06:51:14;;;;;;;0.30;0.30;;;24.40;56.80;;;;;;5104713;28;20015;-60
2022/09/12 06:53:40;;;;;;;0.43;0.43;;;24.40;56.80;;;;;;5104664;28;20177;-60
2022/09/12 06:56:13;;;;;;;0.50;0.50;;;24.40;56.80;;;;;;5104634;28;20058;-60
2022/09/12 06:58:39;;;;;;;0.40;0.40;;;24.40;56.80;;;;;;5104286;28;20019;-60
2022/09/12 07:01:12;;;;;;;0.40;0.40;;;24.40;56.80;;;;;;5104554;28;20265;-59
2022/09/12 07:03:38;;;;;;;0.77;0.60;;;24.40;56.80;;;;;;5104528;28;20181;-60
2022/09/12 07:06:10;;;;;;;1.65;0.40;;;24.40;56.80;;;;;;5104241;28;20122;-59
2022/09/12 07:08:36;;;;;;;0.60;0.50;;;24.40;56.80;;;;;;5104234;28;20185;-59
2022/09/12 07:11:14;;;;;;;0.60;0.60;;;24.40;57.40;;;;;;5104140;28;20024;-60
2022/09/12 07:13:41;;;;;;;0.65;0.50;;;24.40;56.80;;;;;;5104127;28;20216;-60
2022/09/12 07:16:09;;;;;;;0.50;0.33;;;24.40;56.80;;;;;;5104052;28;20031;-59
2022/09/12 07:18:39;;;;;;;0.47;0.47;;;24.40;56.80;;;;;;5103892;28;20451;-59
2022/09/12 07:21:12;;;;;;;2.53;0.45;;;24.40;56.80;;;;;;5103942;28;20020;-59
2022/09/12 07:23:39;;;;;;;0.50;0.50;;;24.40;56.80;;;;;;5104240;28;20008;-59
2022/09/12 07:26:06;;;;;;;0.40;0.40;;;24.40;56.80;;;;;;5103841;28;20311;-60
2022/09/12 07:28:33;;;;;;;0.87;0.43;;;24.40;56.80;;;;;;5104134;28;20019;-60
2022/09/12 07:31:08;;;;;;;0.43;0.43;;;24.40;56.80;;;;;;5103797;28;20020;-60
2022/09/12 07:33:35;;;;;;;0.70;0.47;;;24.40;56.90;;;;;;5103772;28;20118;-59
2022/09/12 07:36:03;;;;;;;0.40;0.40;;;24.30;57.00;;;;;;5103769;28;20024;-59
2022/09/12 07:38:29;;;;;;;0.50;0.50;;;24.40;57.00;;;;;;5103614;28;20066;-60
2022/09/12 07:40:55;;;;;;;0.32;0.30;;;24.40;56.90;;;;;;5103706;28;20079;-59
2022/09/12 07:43:20;;;;;;;0.50;0.50;;;24.40;56.80;;;;;;5103626;28;20016;-60
2022/09/12 07:45:46;;;;;;;0.50;0.50;;;24.40;56.80;;;;;;5103919;28;20012;-60
2022/09/12 07:48:12;;;;;;;0.50;0.45;;;24.40;56.80;;;;;;5103651;28;20062;-59
2022/09/12 07:50:38;;;;;;;0.40;0.40;;;24.50;56.70;;;;;;5103606;28;20057;-59
2022/09/12 07:53:04;;;;;;;0.52;0.52;;;24.40;56.60;;;;;;5107793;28;20065;-59
2022/09/12 07:55:31;;;;;;;0.47;0.47;;;24.50;56.50;;;;;;5108120;28;20016;-59
2022/09/12 07:57:57;;;;;;;0.68;0.50;;;24.50;56.50;;;;;;5107771;28;20069;-59
2022/09/12 08:00:22;;;;;;;0.38;0.38;;;24.50;56.50;;;;;;5107700;28;20011;-59
2022/09/12 08:02:52;;;;;;;0.70;0.65;;;24.60;56.50;;;;;;5107717;28;20204;-59
2022/09/12 08:05:19;;;;;;;0.57;0.57;;;24.60;56.50;;;;;;5107636;28;20016;-60
2022/09/12 08:07:45;;;;;;;0.30;0.30;;;24.60;56.60;;;;;;5107649;28;20039;-59
2022/09/12 08:10:12;;;;;;;0.32;0.32;;;24.60;56.60;;;;;;5107372;28;20310;-58
2022/09/12 08:12:38;;;;;;;0.75;0.50;;;24.60;56.60;;;;;;5107487;28;20020;-59
2022/09/12 08:15:04;;;;;;;0.68;0.50;;;24.50;56.40;;;;;;5107468;28;20065;-58
2022/09/12 08:17:29;;;;;;;0.50;0.50;;;24.60;56.60;;;;;;5107429;28;20077;-59
2022/09/12 08:19:55;;;;;;;1.48;0.50;;;24.60;56.50;;;;;;5107308;28;20239;-58
2022/09/12 08:22:21;;;;;;;0.40;0.40;;;24.60;56.50;;;;;;5107327;28;20060;-58
2022/09/12 08:24:48;;;;;;;0.70;0.50;;;24.60;56.60;;;;;;5107277;28;20295;-58
2022/09/12 08:27:14;;;;;;;0.50;0.50;;;24.60;56.60;;;;;;5107194;28;20013;-58
2022/09/12 08:29:40;;;;;;;0.55;0.55;;;24.60;56.60;;;;;;5107187;28;20054;-59
2022/09/12 08:32:06;;;;;;;0.60;0.60;;;24.60;56.60;;;;;;5107147;28;20304;-59
2022/09/12 08:34:32;;;;;;;2.13;0.50;;;24.60;56.50;;;;;;5107031;28;20027;-59
2022/09/12 08:36:58;;;;;;;1.02;0.50;;;24.60;56.50;;;;;;5107368;28;20027;-59
2022/09/12 08:39:24;;;;;;;0.50;0.50;;;24.60;56.60;;;;;;5107229;28;20023;-58
2022/09/12 08:42:02;;;;;;;0.40;0.40;;;24.50;56.50;;;;;;5106961;28;20263;-59
2022/09/12 08:44:46;;;;;;;0.38;0.38;;;24.50;56.60;;;;;;5106962;28;20076;-59
2022/09/12 08:47:32;;;;;;;0.43;0.38;;;24.60;56.70;;;;;;5106862;28;20327;-59
2022/09/12 08:50:07;;;;;;;0.52;0.52;;;24.60;56.70;;;;;;5106824;28;20016;-59
2022/09/12 08:52:51;;;;;;;0.45;0.45;;;24.60;56.60;;;;;;5106988;28;20028;-58
2022/09/12 08:55:22;;;;;;;0.50;0.50;;;24.60;56.60;;;;;;5106711;28;20311;-59
2022/09/12 08:57:48;;;;;;;0.82;0.38;;;24.60;56.60;;;;;;5106663;28;20024;-60
2022/09/12 09:00:16;;;;;;;0.57;0.57;;;24.60;56.60;;;;;;5106565;28;20257;-59
2022/09/12 09:02:45;;;;;;;0.40;0.40;;;24.60;56.60;;;;;;5106166;28;20061;-59
2022/09/12 09:05:42;;;;;;;0.32;0.32;;;24.60;56.70;;;;;;5106545;28;20016;-59
2022/09/12 09:08:11;;;;;;;0.50;0.50;;;24.60;56.70;;;;;;5097168;28;20028;-60
2022/09/12 09:10:48;;;;;;;0.40;0.40;;;24.50;56.60;;;;;;5106324;28;20295;-60
2022/09/12 09:16:30;;;;;;;0.60;0.60;;;24.60;56.70;;;;;;5106432;28;20357;-60
2022/09/12 09:19:01;;;;;;;0.40;0.40;;;24.50;56.60;;;;;;5106335;28;20024;-59
2022/09/12 09:21:49;;;;;;;0.60;0.60;;;24.60;56.60;;;;;;5088597;28;20092;-60
2022/09/12 09:24:20;;;;;;;0.43;0.40;;;24.60;56.60;;;;;;5106268;28;20053;-60
2022/09/12 09:27:00;;;;;;;0.55;0.55;;;24.60;56.60;;;;;;5106591;28;20019;-60
2022/09/12 09:29:32;;;;;;;0.45;0.43;;;24.60;56.50;;;;;;5106341;28;20023;-60
2022/09/12 09:32:02;;;;;;;0.65;0.60;;;24.60;56.60;;;;;;5106370;28;20020;-58
2022/09/12 09:34:30;;;;;;;0.40;0.40;;;24.70;56.60;;;;;;5106414;28;20271;-60
2022/09/12 09:37:02;;;;;;;0.68;0.40;;;24.60;56.50;;;;;;5106367;28;20024;-59
2022/09/12 09:39:39;;;;;;;0.47;0.47;;;24.60;56.70;;;;;;5105885;28;20042;-59
2022/09/12 09:42:25;;;;;;;0.40;0.40;;;24.60;56.70;;;;;;5105893;28;20207;-60
2022/09/12 09:44:54;;;;;;;0.40;0.40;;;24.60;56.70;;;;;;5105811;28;20124;-61
2022/09/12 09:47:20;;;;;;;0.57;0.57;;;24.50;57.30;;;;;;5106016;28;20253;-59
2022/09/12 09:49:46;;;;;;;0.43;0.38;;;24.60;56.80;;;;;;5105697;28;20044;-59
2022/09/12 09:52:16;;;;;;;1.38;0.77;;;24.50;56.80;;;;;;5106008;28;20062;-59
2022/09/12 09:54:58;;;;;;;0.70;0.70;;;24.60;56.70;;;;;;5105679;28;20312;-58
2022/09/12 09:57:36;;;;;;;0.82;0.70;;;24.60;56.60;;;;;;5105506;28;20031;-59
2022/09/12 10:00:26;;;;;;;0.40;0.40;;;24.70;56.70;;;;;;5105432;28;20016;-59
2022/09/12 10:03:04;;;;;;;0.50;0.50;;;24.60;56.70;;;;;;5105451;28;20008;-58
2022/09/12 10:05:43;;;;;;;0.80;0.60;;;24.60;56.70;;;;;;5105663;28;20016;-60
2022/09/12 10:08:10;;;;;;;0.75;0.60;;;24.60;56.70;;;;;;5105361;28;20008;-59
2022/09/12 10:10:35;;;;;;;0.52;0.52;;;24.60;56.50;;;;;;5105133;28;20048;-60
2022/09/12 10:13:22;;;;;;;0.45;0.43;;;24.70;56.50;;;;;;5105135;28;20019;-59
2022/09/12 10:15:58;;;;;;;0.30;0.30;;;24.70;56.40;;;;;;5104832;28;20196;-60
2022/09/12 10:18:42;;;;;;;0.40;0.40;;;24.70;56.40;;;;;;5105039;28;20316;-60
2022/09/12 10:21:15;;;;;;;0.50;0.50;;;24.70;56.40;;;;;;5105040;28;20012;-59
2022/09/12 10:23:42;;;;;;;0.43;0.43;;;24.70;56.50;;;;;;5105040;28;20016;-59
2022/09/12 10:26:11;;;;;;;0.40;0.40;;;24.70;56.60;;;;;;5104962;28;20020;-59
2022/09/12 10:28:55;;;;;;;0.50;0.50;;;24.60;56.60;;;;;;5104925;28;20367;-60
2022/09/12 10:31:27;;;;;;;0.70;0.52;;;24.70;56.60;;;;;;5104899;28;20082;-59
2022/09/12 10:33:58;;;;;;;0.50;0.50;;;24.60;56.70;;;;;;5105034;28;20047;-59
2022/09/12 10:36:25;;;;;;;0.30;0.30;;;24.60;56.70;;;;;;5104801;28;20026;-60
2022/09/12 10:38:54;;;;;;;0.40;0.40;;;24.60;56.80;;;;;;5104643;28;20019;-61
2022/09/12 10:41:23;;;;;;;0.30;0.30;;;24.60;56.90;;;;;;5104639;28;20023;-59
2022/09/12 10:43:49;;;;;;;0.40;0.40;;;24.60;56.90;;;;;;5104632;28;20303;-60
2022/09/12 10:46:15;;;;;;;0.70;0.70;;;24.50;56.80;;;;;;5104570;28;20204;-60
2022/09/12 10:48:44;;;;;;;0.50;0.50;;;24.50;56.90;;;;;;5104487;28;20036;-59
2022/09/12 10:51:22;;;;;;;0.50;0.50;;;24.50;56.90;;;;;;5104477;28;20024;-60
2022/09/12 10:54:00;;;;;;;0.35;0.35;;;24.50;56.90;;;;;;5104470;28;20027;-60
2022/09/12 10:56:53;;;;;;;0.28;0.28;;;24.50;56.90;;;;;;5104447;28;20030;-60
2022/09/12 10:59:45;;;;;;;0.45;0.45;;;24.50;56.90;;;;;;5104321;28;20016;-59
2022/09/12 11:02:33;;;;;;;0.43;0.40;;;24.50;56.90;;;;;;5065780;28;20028;-60
2022/09/12 11:05:02;;;;;;;;;;;24.50;57.00;;;;;;5104708;28;20016;-59
2022/09/12 11:07:39;;;;;;;0.50;0.50;;;24.50;57.10;;;;;;5104181;28;19911;-60
2022/09/12 11:10:23;;;;;;;0.30;0.30;;;24.40;57.10;;;;;;5104058;28;20123;-59
2022/09/12 11:13:40;;;;;;;0.40;0.32;;;24.50;57.10;;;;;;5104063;28;20020;-59
2022/09/12 11:16:33;;;;;;;0.85;0.70;;;24.50;57.10;;;;;;5048779;28;20048;-60
2022/09/12 11:19:20;;;;;;;0.40;0.40;;;24.50;56.90;;;;;;5103999;28;20026;-59
2022/09/12 11:22:08;;;;;;;0.50;0.50;;;24.60;56.90;;;;;;5104062;28;20031;-60
2022/09/12 11:24:50;;;;;;;0.40;0.40;;;24.60;56.70;;;;;;5104263;28;20012;-60
2022/09/12 11:27:53;;;;;;;0.47;0.47;;;24.60;56.80;;;;;;5104164;28;20237;-58
2022/09/12 11:30:19;;;;;;;0.28;0.28;;;24.60;56.70;;;;;;5103857;28;20020;-59
2022/09/12 11:33:04;;;;;;;0.40;0.40;;;24.60;56.70;;;;;;5103807;28;20023;-60
2022/09/12 11:35:38;;;;;;;0.45;0.45;;;24.70;56.70;;;;;;5104344;28;20264;-60
2022/09/12 11:38:34;;;;;;;0.50;0.50;;;24.60;56.80;;;;;;5103761;28;20031;-59
2022/09/12 11:41:27;;;;;;;0.40;0.40;;;24.60;56.80;;;;;;5103765;28;20020;-59
2022/09/12 11:44:22;;;;;;;0.63;0.50;;;24.60;56.70;;;;;;5103675;28;20204;-60
2022/09/12 11:46:48;;;;;;;0.40;0.40;;;24.60;56.80;;;;;;5103632;28;20117;-59
2022/09/12 11:49:22;;;;;;;0.43;0.43;;;24.60;56.70;;;;;;5103654;28;20023;-60
2022/09/12 11:52:12;;;;;;;0.50;0.50;;;24.60;56.80;;;;;;5103663;28;20028;-60
2022/09/12 11:55:00;;;;;;;0.60;0.60;;;24.70;56.80;;;;;;5103607;28;20020;-59
2022/09/12 11:57:37;;;;;;;0.40;0.40;;;24.60;56.70;;;;;;5103580;28;20027;-60
2022/09/12 12:00:17;;;;;;;0.50;0.50;;;24.70;56.70;;;;;;5103471;28;20024;-60
2022/09/12 12:02:50;;;;;;;0.70;0.50;;;24.70;56.60;;;;;;5103554;28;20030;-60
2022/09/12 12:05:24;;;;;;;0.43;0.40;;;24.80;56.50;;;;;;5103549;28;20026;-60
2022/09/12 12:07:56;;;;;;;0.60;0.60;;;24.80;56.40;;;;;;5103802;28;20330;-60
2022/09/12 12:10:41;;;;;;;0.40;0.40;;;24.80;56.30;;;;;;5103212;28;20059;-60
2022/09/12 12:13:18;;;;;;;0.40;0.40;;;24.80;56.20;;;;;;5103456;28;20105;-59
2022/09/12 12:15:48;;;;;;;0.30;0.30;;;24.80;56.20;;;;;;5103418;28;20016;-60
2022/09/12 12:18:22;;;;;;;1.27;0.40;;;24.80;56.20;;;;;;5103357;28;20274;-60
2022/09/12 12:20:49;;;;;;;0.40;0.40;;;24.90;56.20;;;;;;5103392;28;20024;-60
2022/09/12 12:23:34;;;;;;;0.50;0.50;;;25.00;56.20;;;;;;5103366;28;20327;-59
2022/09/12 12:26:04;;;;;;;0.52;0.52;;;24.90;56.00;;;;;;5103513;28;20027;-59
2022/09/12 12:28:43;;;;;;;0.60;0.50;;;25.00;56.10;;;;;;5103503;28;20212;-60
2022/09/12 12:31:10;;;;;;;0.50;0.50;;;24.90;56.20;;;;;;5103259;28;20023;-59
2022/09/12 12:33:38;;;;;;;0.43;0.43;;;24.90;56.30;;;;;;5103247;28;20047;-59
2022/09/12 12:36:09;;;;;;;0.40;0.40;;;24.90;56.30;;;;;;5103211;28;20016;-60
2022/09/12 12:38:37;;;;;;;0.70;0.70;;;24.90;56.30;;;;;;5106131;28;20089;-58
2022/09/12 12:41:15;;;;;;;;;;;24.90;56.20;;;;;;5107451;28;20083;-59
2022/09/12 12:43:42;;;;;;;0.50;0.50;;;25.00;56.10;;;;;;5106970;28;19939;-59
2022/09/12 12:46:11;;;;;;;0.50;0.50;;;25.00;56.70;;;;;;5106948;28;20241;-59
2022/09/12 12:49:09;;;;;;;0.50;0.50;;;25.00;56.00;;;;;;5106911;28;20065;-59
2022/09/12 12:51:44;;;;;;;0.57;0.57;;;25.00;56.00;;;;;;5106879;28;20012;-60
2022/09/12 12:54:29;;;;;;;0.30;0.30;;;25.00;55.90;;;;;;5106796;28;20207;-59
2022/09/12 12:57:21;;;;;;;0.40;0.40;;;25.00;56.00;;;;;;5106707;28;20019;-60
2022/09/12 12:59:48;;;;;;;0.52;0.52;;;25.00;56.00;;;;;;5068326;28;20059;-60
2022/09/12 13:02:24;;;;;;;0.43;0.43;;;25.00;56.10;;;;;;5106631;28;20016;-59
2022/09/12 13:04:50;;;;;;;0.40;0.40;;;25.20;55.80;;;;;;5106578;28;20084;-59
2022/09/12 13:07:37;;;;;;;0.68;0.55;;;25.20;55.60;;;;;;5106817;28;20020;-59
2022/09/12 13:10:05;;;;;;;0.45;0.45;;;25.20;55.60;;;;;;5106351;28;20052;-59
2022/09/12 13:12:45;;;;;;;1.52;0.50;;;25.20;55.80;;;;;;5088706;28;20268;-60
2022/09/12 13:15:49;;;;;;;0.43;0.43;;;25.40;55.50;;;;;;5106460;28;20016;-59
2022/09/12 13:18:27;;;;;;;0.50;0.50;;;25.30;55.60;;;;;;5004680;28;20022;-60
2022/09/12 13:20:54;;;;;;;0.40;0.40;;;25.30;55.80;;;;;;5095620;28;20028;-59